createdAt,value
2018-09-22T00:00:46.210Z,1009.44
2018-09-22T00:02:39.113Z,1009.41
2018-09-22T00:03:39.134Z,1009.40
2018-09-22T00:05:32.042Z,1009.51
2018-09-22T00:06:32.049Z,1009.49
2018-09-22T00:08:24.957Z,1009.52
2018-09-22T00:09:24.976Z,1009.51
2018-09-22T00:11:17.890Z,1009.57
2018-09-22T00:12:17.895Z,1009.51
2018-09-22T00:14:10.801Z,1009.65
2018-09-22T00:15:10.815Z,1009.64
2018-09-22T00:17:03.726Z,1009.59
2018-09-22T00:18:03.731Z,1009.66
2018-09-22T00:19:56.664Z,1009.61
2018-09-22T00:20:56.653Z,1009.65
2018-09-22T00:22:49.583Z,1009.70
2018-09-22T00:23:49.577Z,1009.71
2018-09-22T00:25:42.489Z,1009.70
2018-09-22T00:26:42.497Z,1009.70
2018-09-22T00:28:35.401Z,1009.67
2018-09-22T00:29:35.419Z,1009.77
2018-09-22T00:31:28.331Z,1009.79
2018-09-22T00:32:28.341Z,1009.83
2018-09-22T00:34:21.246Z,1009.84
2018-09-22T00:35:21.263Z,1009.89
2018-09-22T00:37:14.180Z,1009.93
2018-09-22T00:38:14.184Z,1009.93
2018-09-22T00:40:07.088Z,1009.90
2018-09-22T00:41:07.106Z,1009.90
2018-09-22T00:43:00.016Z,1009.94
2018-09-22T00:44:00.024Z,1009.94
2018-09-22T00:45:52.937Z,1010.01
2018-09-22T00:46:52.945Z,1009.93
2018-09-22T00:48:45.849Z,1009.91
2018-09-22T00:49:45.880Z,1009.96
2018-09-22T00:51:38.778Z,1009.98
2018-09-22T00:52:38.783Z,1009.94
2018-09-22T00:54:31.688Z,1010.03
2018-09-22T00:55:31.707Z,1009.97
2018-09-22T00:57:24.625Z,1009.98
2018-09-22T00:58:24.620Z,1010.01
2018-09-22T01:00:17.527Z,1010.04
2018-09-22T01:01:17.558Z,1010.03
2018-09-22T01:03:10.463Z,1010.11
2018-09-22T01:04:10.470Z,1010.11
2018-09-22T01:06:03.379Z,1010.13
2018-09-22T01:07:03.390Z,1010.17
2018-09-22T01:08:56.303Z,1010.20
2018-09-22T01:09:56.324Z,1010.18
2018-09-22T01:11:49.289Z,1010.23
2018-09-22T01:12:49.259Z,1010.23
2018-09-22T01:14:42.157Z,1010.24
2018-09-22T01:15:42.194Z,1010.28
2018-09-22T01:17:35.091Z,1010.24
2018-09-22T01:18:35.106Z,1010.28
2018-09-22T01:20:28.003Z,1010.33
2018-09-22T01:21:28.018Z,1010.32
2018-09-22T01:23:20.944Z,1010.34
2018-09-22T01:24:20.956Z,1010.38
2018-09-22T01:26:13.862Z,1010.40
2018-09-22T01:27:13.878Z,1010.40
2018-09-22T01:29:06.819Z,1010.40
2018-09-22T01:30:06.828Z,1010.38
2018-09-22T01:31:59.737Z,1010.46
2018-09-22T01:32:59.746Z,1010.41
2018-09-22T01:34:52.653Z,1010.46
2018-09-22T01:35:52.705Z,1010.45
2018-09-22T01:37:45.584Z,1010.50
2018-09-22T01:38:45.595Z,1010.50
2018-09-22T01:40:38.496Z,1010.50
2018-09-22T01:41:38.516Z,1010.54
2018-09-22T01:43:31.435Z,1010.60
2018-09-22T01:44:31.459Z,1010.59
2018-09-22T01:46:24.421Z,1010.59
2018-09-22T01:47:24.367Z,1010.60
2018-09-22T01:49:17.278Z,1010.62
2018-09-22T01:50:17.285Z,1010.64
2018-09-22T01:52:10.212Z,1010.67
2018-09-22T01:53:10.213Z,1010.66
2018-09-22T01:55:03.145Z,1010.73
2018-09-22T01:56:03.149Z,1010.77
2018-09-22T01:59:54.222Z,1010.78
2018-09-22T02:00:27.663Z,1010.79
2018-09-22T02:02:20.563Z,1010.83
2018-09-22T02:03:20.582Z,1010.82
2018-09-22T02:05:13.491Z,1010.88
2018-09-22T02:06:13.500Z,1010.88
2018-09-22T02:08:06.408Z,1010.91
2018-09-22T02:09:06.416Z,1010.95
2018-09-22T02:10:59.323Z,1011.02
2018-09-22T02:11:59.398Z,1010.98
2018-09-22T02:13:52.249Z,1010.98
2018-09-22T02:14:52.260Z,1010.98
2018-09-22T02:16:45.161Z,1011.02
2018-09-22T02:17:45.177Z,1011.03
2018-09-22T02:19:38.090Z,1011.08
2018-09-22T02:20:38.098Z,1011.06
2018-09-22T02:22:30.998Z,1011.06
2018-09-22T02:23:31.015Z,1011.03
2018-09-22T02:25:23.926Z,1011.09
2018-09-22T02:26:23.935Z,1011.07
2018-09-22T02:28:16.840Z,1011.09
2018-09-22T02:29:16.856Z,1011.05
2018-09-22T02:31:09.762Z,1011.10
2018-09-22T02:32:09.773Z,1011.07
2018-09-22T02:34:02.684Z,1011.14
2018-09-22T02:35:02.695Z,1011.14
2018-09-22T02:36:55.594Z,1011.17
2018-09-22T02:37:55.614Z,1011.17
2018-09-22T02:39:48.522Z,1011.18
2018-09-22T02:40:48.534Z,1011.19
2018-09-22T02:42:41.435Z,1011.21
2018-09-22T02:43:41.449Z,1011.26
2018-09-22T02:45:34.391Z,1011.33
2018-09-22T02:46:34.371Z,1011.35
2018-09-22T02:48:27.291Z,1011.22
2018-09-22T02:49:27.288Z,1011.32
2018-09-22T02:51:20.196Z,1011.29
2018-09-22T02:52:20.208Z,1011.29
2018-09-22T02:54:13.109Z,1011.30
2018-09-22T02:55:13.128Z,1011.33
2018-09-22T02:57:06.053Z,1011.28
2018-09-22T02:58:06.047Z,1011.29
2018-09-22T02:59:58.956Z,1011.36
2018-09-22T03:00:58.964Z,1011.35
2018-09-22T03:02:51.879Z,1011.40
2018-09-22T03:03:51.884Z,1011.40
2018-09-22T03:05:44.808Z,1011.45
2018-09-22T03:06:44.848Z,1011.52
2018-09-22T03:08:37.728Z,1011.50
2018-09-22T03:09:37.727Z,1011.53
2018-09-22T03:11:30.637Z,1011.52
2018-09-22T03:12:30.646Z,1011.55
2018-09-22T03:14:23.557Z,1011.54
2018-09-22T03:15:23.645Z,1011.50
2018-09-22T03:17:16.476Z,1011.55
2018-09-22T03:18:16.486Z,1011.49
2018-09-22T03:20:09.398Z,1011.59
2018-09-22T03:21:09.409Z,1011.52
2018-09-22T03:23:02.311Z,1011.52
2018-09-22T03:24:02.327Z,1011.54
2018-09-22T03:25:55.241Z,1011.62
2018-09-22T03:26:55.250Z,1011.62
2018-09-22T03:28:48.149Z,1011.66
2018-09-22T03:29:48.186Z,1011.66
2018-09-22T03:31:41.080Z,1011.65
2018-09-22T03:32:41.094Z,1011.68
2018-09-22T03:34:33.990Z,1011.70
2018-09-22T03:35:34.002Z,1011.70
2018-09-22T03:37:26.917Z,1011.66
2018-09-22T03:38:26.949Z,1011.73
2018-09-22T03:40:19.829Z,1011.79
2018-09-22T03:41:19.857Z,1011.81
2018-09-22T03:43:12.756Z,1011.81
2018-09-22T03:44:12.778Z,1011.79
2018-09-22T03:46:05.686Z,1011.78
2018-09-22T03:47:05.684Z,1011.82
2018-09-22T03:48:58.585Z,1011.83
2018-09-22T03:49:58.607Z,1011.81
2018-09-22T03:51:51.530Z,1011.88
2018-09-22T03:52:51.543Z,1011.87
2018-09-22T03:54:44.460Z,1011.88
2018-09-22T03:55:44.482Z,1011.88
2018-09-22T03:57:37.386Z,1011.90
2018-09-22T03:58:37.399Z,1011.84
2018-09-22T04:00:30.297Z,1011.87
2018-09-22T04:01:30.317Z,1011.92
2018-09-22T04:03:23.224Z,1011.89
2018-09-22T04:04:23.237Z,1011.94
2018-09-22T04:06:16.135Z,1011.93
2018-09-22T04:07:16.154Z,1011.93
2018-09-22T04:09:09.092Z,1011.94
2018-09-22T04:10:09.069Z,1011.90
2018-09-22T04:12:01.980Z,1011.88
2018-09-22T04:13:01.989Z,1011.92
2018-09-22T04:14:54.900Z,1011.91
2018-09-22T04:15:54.920Z,1011.94
2018-09-22T04:17:47.981Z,1011.91
2018-09-22T04:18:47.992Z,1011.91
2018-09-22T04:20:40.893Z,1011.88
2018-09-22T04:21:40.910Z,1011.90
2018-09-22T04:23:33.995Z,1011.99
2018-09-22T04:24:33.994Z,1011.97
2018-09-22T04:26:26.896Z,1011.99
2018-09-22T04:27:26.911Z,1011.99
2018-09-22T04:29:19.990Z,1012.04
2018-09-22T04:30:19.998Z,1012.05
2018-09-22T04:32:12.899Z,1012.06
2018-09-22T04:33:12.947Z,1012.07
2018-09-22T04:35:05.839Z,1012.06
2018-09-22T04:36:05.848Z,1012.10
2018-09-22T04:37:58.774Z,1012.06
2018-09-22T04:38:58.788Z,1012.09
2018-09-22T04:40:51.692Z,1012.16
2018-09-22T04:41:51.707Z,1012.11
2018-09-22T04:43:44.616Z,1012.10
2018-09-22T04:44:44.625Z,1012.13
2018-09-22T04:46:37.524Z,1012.15
2018-09-22T04:47:37.541Z,1012.13
2018-09-22T04:49:30.452Z,1012.13
2018-09-22T04:50:30.462Z,1012.18
2018-09-22T04:52:23.366Z,1012.28
2018-09-22T04:53:23.381Z,1012.23
2018-09-22T04:55:16.288Z,1012.30
2018-09-22T04:56:16.297Z,1012.30
2018-09-22T04:58:09.212Z,1012.34
2018-09-22T04:59:09.223Z,1012.35
2018-09-22T05:01:02.126Z,1012.39
2018-09-22T05:02:02.143Z,1012.39
2018-09-22T05:03:55.052Z,1012.33
2018-09-22T05:04:55.058Z,1012.32
2018-09-22T05:06:47.964Z,1012.40
2018-09-22T05:07:47.980Z,1012.43
2018-09-22T05:09:40.888Z,1012.35
2018-09-22T05:10:40.897Z,1012.40
2018-09-22T05:12:33.800Z,1012.45
2018-09-22T05:13:33.818Z,1012.40
2018-09-22T05:15:26.731Z,1012.47
2018-09-22T05:16:26.741Z,1012.52
2018-09-22T05:18:19.636Z,1012.49
2018-09-22T05:19:19.651Z,1012.49
2018-09-22T05:21:12.563Z,1012.52
2018-09-22T05:22:12.572Z,1012.53
2018-09-22T05:24:05.488Z,1012.55
2018-09-22T05:25:05.498Z,1012.54
2018-09-22T05:26:58.400Z,1012.50
2018-09-22T05:27:58.415Z,1012.54
2018-09-22T05:29:51.326Z,1012.60
2018-09-22T05:30:51.335Z,1012.66
2018-09-22T05:32:44.239Z,1012.65
2018-09-22T05:33:44.253Z,1012.64
2018-09-22T05:35:37.161Z,1012.65
2018-09-22T05:36:37.172Z,1012.69
2018-09-22T05:38:30.075Z,1012.74
2018-09-22T05:39:30.089Z,1012.78
2018-09-22T05:41:23.008Z,1012.79
2018-09-22T05:42:23.013Z,1012.80
2018-09-22T05:44:16.124Z,1012.74
2018-09-22T05:45:16.140Z,1012.76
2018-09-22T05:47:09.057Z,1012.75
2018-09-22T05:48:09.058Z,1012.77
2018-09-22T05:50:01.971Z,1012.76
2018-09-22T05:51:01.984Z,1012.79
2018-09-22T05:52:54.931Z,1012.83
2018-09-22T05:53:54.899Z,1012.91
2018-09-22T05:55:47.812Z,1012.93
2018-09-22T05:56:47.817Z,1012.99
2018-09-22T05:58:40.719Z,1013.04
2018-09-22T05:59:40.740Z,1013.05
2018-09-22T06:01:33.649Z,1013.07
2018-09-22T06:02:33.667Z,1013.03
2018-09-22T06:04:26.600Z,1013.07
2018-09-22T06:05:26.619Z,1013.01
2018-09-22T06:07:19.530Z,1013.05
2018-09-22T06:08:19.543Z,1013.07
2018-09-22T06:10:12.451Z,1013.03
2018-09-22T06:11:12.469Z,1013.05
2018-09-22T06:13:05.380Z,1013.03
2018-09-22T06:14:05.392Z,1013.10
2018-09-22T06:15:58.321Z,1013.11
2018-09-22T06:16:58.330Z,1013.02
2018-09-22T06:18:51.234Z,1013.01
2018-09-22T06:19:51.252Z,1013.00
2018-09-22T06:21:44.160Z,1013.03
2018-09-22T06:22:44.172Z,1013.06
2018-09-22T06:24:37.073Z,1013.05
2018-09-22T06:25:37.091Z,1013.04
2018-09-22T06:27:30.004Z,1013.07
2018-09-22T06:28:30.017Z,1013.08
2018-09-22T06:30:22.919Z,1013.05
2018-09-22T06:31:22.935Z,1013.10
2018-09-22T06:33:15.845Z,1013.18
2018-09-22T06:34:15.856Z,1013.17
2018-09-22T06:36:08.785Z,1013.17
2018-09-22T06:37:08.779Z,1013.18
2018-09-22T06:39:01.685Z,1013.20
2018-09-22T06:40:01.699Z,1013.21
2018-09-22T06:41:54.612Z,1013.17
2018-09-22T06:42:54.621Z,1013.20
2018-09-22T06:44:47.526Z,1013.22
2018-09-22T06:45:47.544Z,1013.25
2018-09-22T06:47:40.455Z,1013.29
2018-09-22T06:48:40.465Z,1013.31
2018-09-22T06:50:33.367Z,1013.29
2018-09-22T06:51:33.385Z,1013.25
2018-09-22T06:53:26.299Z,1013.23
2018-09-22T06:54:26.311Z,1013.26
2018-09-22T06:56:19.214Z,1013.23
2018-09-22T06:57:19.232Z,1013.24
2018-09-22T06:59:12.147Z,1013.21
2018-09-22T07:00:12.161Z,1013.24
2018-09-22T07:02:05.075Z,1013.23
2018-09-22T07:03:05.080Z,1013.19
2018-09-22T07:04:57.982Z,1013.22
2018-09-22T07:05:58.001Z,1013.23
2018-09-22T07:07:50.923Z,1013.24
2018-09-22T07:08:50.930Z,1013.29
2018-09-22T07:10:43.845Z,1013.35
2018-09-22T07:11:43.853Z,1013.31
2018-09-22T07:13:36.839Z,1013.33
2018-09-22T07:14:36.779Z,1013.28
2018-09-22T07:16:29.684Z,1013.29
2018-09-22T07:17:29.705Z,1013.35
2018-09-22T07:19:22.631Z,1013.29
2018-09-22T07:20:22.632Z,1013.33
2018-09-22T07:22:15.557Z,1013.36
2018-09-22T07:23:15.554Z,1013.40
2018-09-22T07:25:08.464Z,1013.43
2018-09-22T07:26:08.480Z,1013.43
2018-09-22T07:28:01.455Z,1013.47
2018-09-22T07:29:01.406Z,1013.50
2018-09-22T07:30:54.390Z,1013.44
2018-09-22T07:31:54.333Z,1013.43
2018-09-22T07:33:47.247Z,1013.49
2018-09-22T07:34:47.259Z,1013.47
2018-09-22T07:36:40.167Z,1013.48
2018-09-22T07:37:40.185Z,1013.48
2018-09-22T07:39:33.124Z,1013.44
2018-09-22T07:40:33.109Z,1013.50
2018-09-22T07:42:26.013Z,1013.53
2018-09-22T07:43:26.035Z,1013.54
2018-09-22T07:45:18.949Z,1013.60
2018-09-22T07:46:18.958Z,1013.58
2018-09-22T07:48:11.863Z,1013.56
2018-09-22T07:49:11.883Z,1013.57
2018-09-22T07:51:04.799Z,1013.53
2018-09-22T07:52:04.828Z,1013.56
2018-09-22T07:53:57.725Z,1013.67
2018-09-22T07:54:57.739Z,1013.65
2018-09-22T07:56:50.643Z,1013.65
2018-09-22T07:57:50.685Z,1013.68
2018-09-22T07:59:43.596Z,1013.64
2018-09-22T08:00:43.603Z,1013.67
2018-09-22T08:02:36.507Z,1013.66
2018-09-22T08:03:36.534Z,1013.68
2018-09-22T08:05:29.470Z,1013.73
2018-09-22T08:06:29.554Z,1013.73
2018-09-22T08:08:22.389Z,1013.78
2018-09-22T08:09:22.411Z,1013.71
2018-09-22T08:11:15.329Z,1013.63
2018-09-22T08:12:15.338Z,1013.60
2018-09-22T08:14:08.245Z,1013.61
2018-09-22T08:15:08.265Z,1013.62
2018-09-22T08:17:01.192Z,1013.65
2018-09-22T08:18:01.205Z,1013.62
2018-09-22T08:19:54.118Z,1013.56
2018-09-22T08:20:54.132Z,1013.56
2018-09-22T08:22:47.061Z,1013.70
2018-09-22T08:23:47.080Z,1013.68
2018-09-22T08:25:40.255Z,1013.76
2018-09-22T08:26:40.286Z,1013.75
2018-09-22T08:28:33.169Z,1013.74
2018-09-22T08:29:33.172Z,1013.76
2018-09-22T08:31:26.100Z,1013.78
2018-09-22T08:32:26.108Z,1013.81
2018-09-22T08:34:19.026Z,1013.77
2018-09-22T08:35:19.045Z,1013.79
2018-09-22T08:37:12.087Z,1013.74
2018-09-22T08:38:11.979Z,1013.81
2018-09-22T08:40:04.886Z,1013.83
2018-09-22T08:41:04.904Z,1013.83
2018-09-22T08:42:57.821Z,1013.79
2018-09-22T08:43:57.907Z,1013.82
2018-09-22T08:45:50.752Z,1013.83
2018-09-22T08:46:50.764Z,1013.86
2018-09-22T08:48:43.689Z,1013.82
2018-09-22T08:49:43.798Z,1013.80
2018-09-22T08:51:36.682Z,1013.84
2018-09-22T08:52:36.665Z,1013.82
2018-09-22T08:54:29.572Z,1013.82
2018-09-22T08:55:29.597Z,1013.84
2018-09-22T08:57:22.727Z,1013.81
2018-09-22T08:58:22.742Z,1013.84
2018-09-22T09:00:15.650Z,1013.86
2018-09-22T09:01:15.674Z,1013.88
2018-09-22T09:03:08.593Z,1013.88
2018-09-22T09:04:08.608Z,1013.87
2018-09-22T09:06:01.523Z,1013.86
2018-09-22T09:07:01.559Z,1013.91
2018-09-22T09:08:54.461Z,1013.93
2018-09-22T09:09:54.464Z,1013.91
2018-09-22T09:11:47.650Z,1014.00
2018-09-22T09:12:47.408Z,1013.98
2018-09-22T09:14:40.934Z,1014.01
2018-09-22T09:15:40.963Z,1014.00
2018-09-22T09:17:33.779Z,1014.02
2018-09-22T09:18:33.984Z,1013.96
2018-09-22T09:20:26.722Z,1013.88
2018-09-22T09:21:26.728Z,1013.84
2018-09-22T09:23:19.652Z,1013.79
2018-09-22T09:24:19.668Z,1013.76
2018-09-22T09:26:12.602Z,1013.68
2018-09-22T09:27:12.658Z,1013.70
2018-09-22T09:29:05.568Z,1013.80
2018-09-22T09:30:05.573Z,1013.79
2018-09-22T09:31:58.525Z,1013.63
2018-09-22T09:32:58.602Z,1013.65
2018-09-22T09:34:51.505Z,1013.72
2018-09-22T09:35:51.571Z,1013.74
2018-09-22T09:37:44.398Z,1013.76
2018-09-22T09:38:44.410Z,1013.82
2018-09-22T09:40:37.347Z,1013.85
2018-09-22T09:41:37.368Z,1013.93
2018-09-22T09:43:30.292Z,1013.89
2018-09-22T09:44:30.306Z,1013.86
2018-09-22T09:46:23.242Z,1013.76
2018-09-22T09:47:23.265Z,1013.72
2018-09-22T09:49:16.717Z,1013.77
2018-09-22T09:50:16.729Z,1013.81
2018-09-22T09:52:10.683Z,1013.66
2018-09-22T09:53:10.124Z,1013.68
2018-09-22T09:55:02.659Z,1013.56
2018-09-22T09:56:02.631Z,1013.60
2018-09-22T09:57:55.641Z,1013.56
2018-09-22T09:58:55.565Z,1013.57
2018-09-22T10:00:48.478Z,1013.55
2018-09-22T10:01:48.503Z,1013.56
2018-09-22T10:03:41.420Z,1013.56
2018-09-22T10:04:41.435Z,1013.59
2018-09-22T10:06:34.356Z,1013.47
2018-09-22T10:07:34.384Z,1013.51
2018-09-22T10:09:27.298Z,1013.49
2018-09-22T10:10:27.312Z,1013.41
2018-09-22T10:12:20.238Z,1013.47
2018-09-22T10:13:20.248Z,1013.47
2018-09-22T10:15:13.174Z,1013.51
2018-09-22T10:16:13.193Z,1013.49
2018-09-22T10:18:06.098Z,1013.50
2018-09-22T10:19:06.129Z,1013.43
2018-09-22T10:20:59.067Z,1013.41
2018-09-22T10:21:59.059Z,1013.34
2018-09-22T10:23:51.987Z,1013.34
2018-09-22T10:24:52.002Z,1013.36
2018-09-22T10:26:44.922Z,1013.37
2018-09-22T10:27:44.937Z,1013.33
2018-09-22T10:29:38.858Z,1013.31
2018-09-22T10:30:38.876Z,1013.35
2018-09-22T10:32:31.791Z,1013.35
2018-09-22T10:33:31.812Z,1013.40
2018-09-22T10:35:24.735Z,1013.47
2018-09-22T10:36:24.751Z,1013.40
2018-09-22T10:38:17.664Z,1013.40
2018-09-22T10:39:17.689Z,1013.43
2018-09-22T10:41:10.614Z,1013.45
2018-09-22T10:42:10.677Z,1013.47
2018-09-22T10:44:03.539Z,1013.42
2018-09-22T10:45:03.563Z,1013.38
2018-09-22T10:46:56.503Z,1013.38
2018-09-22T10:47:56.503Z,1013.39
2018-09-22T10:49:49.452Z,1013.44
2018-09-22T10:50:49.460Z,1013.40
2018-09-22T10:52:42.436Z,1013.32
2018-09-22T10:53:42.400Z,1013.39
2018-09-22T10:55:35.346Z,1013.36
2018-09-22T10:56:35.469Z,1013.36
2018-09-22T10:58:28.281Z,1013.40
2018-09-22T10:59:28.302Z,1013.46
2018-09-22T11:01:21.239Z,1013.36
2018-09-22T11:02:21.249Z,1013.40
2018-09-22T11:04:14.194Z,1013.31
2018-09-22T11:05:14.215Z,1013.42
2018-09-22T11:07:07.205Z,1013.35
2018-09-22T11:08:07.212Z,1013.25
2018-09-22T11:10:00.132Z,1013.27
2018-09-22T11:11:00.181Z,1013.30
2018-09-22T11:12:53.141Z,1013.36
2018-09-22T11:13:53.121Z,1013.35
2018-09-22T11:15:46.129Z,1013.38
2018-09-22T11:16:46.117Z,1013.33
2018-09-22T11:18:39.040Z,1013.27
2018-09-22T11:19:39.033Z,1013.27
2018-09-22T11:21:32.020Z,1013.15
2018-09-22T11:22:32.137Z,1013.11
2018-09-22T11:24:25.915Z,1013.01
2018-09-22T11:25:25.967Z,1013.05
2018-09-22T11:27:18.855Z,1013.05
2018-09-22T11:28:18.881Z,1013.06
2018-09-22T11:30:11.844Z,1012.95
2018-09-22T11:31:11.866Z,1012.96
2018-09-22T11:33:04.770Z,1012.99
2018-09-22T11:34:04.784Z,1013.01
2018-09-22T11:35:57.730Z,1012.90
2018-09-22T11:36:57.734Z,1012.94
2018-09-22T11:38:50.677Z,1012.97
2018-09-22T11:39:50.763Z,1012.99
2018-09-22T11:41:43.664Z,1013.00
2018-09-22T11:42:43.675Z,1013.06
2018-09-22T11:44:36.606Z,1013.09
2018-09-22T11:45:36.619Z,1013.04
2018-09-22T11:47:29.859Z,1012.97
2018-09-22T11:48:29.600Z,1012.91
2018-09-22T11:50:22.579Z,1012.94
2018-09-22T11:51:22.575Z,1012.96
2018-09-22T11:53:15.547Z,1012.97
2018-09-22T11:54:15.540Z,1013.00
2018-09-22T11:56:08.471Z,1013.07
2018-09-22T11:57:08.471Z,1013.03
2018-09-22T11:59:01.548Z,1012.99
2018-09-22T12:00:01.458Z,1012.99
2018-09-22T12:01:54.429Z,1012.99
2018-09-22T12:02:54.410Z,1012.98
2018-09-22T12:04:47.354Z,1012.93
2018-09-22T12:05:47.378Z,1012.94
2018-09-22T12:07:40.275Z,1012.93
2018-09-22T12:08:40.279Z,1012.90
2018-09-22T12:10:33.192Z,1012.85
2018-09-22T12:11:33.219Z,1012.87
2018-09-22T12:13:26.151Z,1012.86
2018-09-22T12:14:26.189Z,1012.87
2018-09-22T12:16:19.063Z,1012.90
2018-09-22T12:17:19.084Z,1012.85
2018-09-22T12:19:12.081Z,1012.92
2018-09-22T12:20:12.056Z,1012.97
2018-09-22T12:22:04.927Z,1012.93
2018-09-22T12:23:04.981Z,1012.98
2018-09-22T12:24:59.499Z,1013.05
2018-09-22T12:25:57.905Z,1012.99
2018-09-22T12:27:50.881Z,1012.95
2018-09-22T12:28:50.863Z,1012.91
2018-09-22T12:30:43.798Z,1012.85
2018-09-22T12:31:43.824Z,1012.85
2018-09-22T12:33:36.774Z,1012.93
2018-09-22T12:34:36.767Z,1012.87
2018-09-22T12:36:29.705Z,1012.84
2018-09-22T12:37:29.660Z,1012.81
2018-09-22T12:39:23.628Z,1012.78
2018-09-22T12:40:23.598Z,1012.80
2018-09-22T12:42:16.555Z,1012.73
2018-09-22T12:43:16.580Z,1012.78
2018-09-22T12:45:09.472Z,1012.73
2018-09-22T12:46:09.555Z,1012.72
2018-09-22T12:48:02.401Z,1012.76
2018-09-22T12:49:02.433Z,1012.72
2018-09-22T12:50:55.344Z,1012.67
2018-09-22T12:51:55.384Z,1012.58
2018-09-22T12:53:48.314Z,1012.71
2018-09-22T12:54:48.299Z,1012.74
2018-09-22T12:56:41.428Z,1012.78
2018-09-22T12:57:41.445Z,1012.77
2018-09-22T12:59:34.382Z,1012.72
2018-09-22T13:00:34.381Z,1012.70
2018-09-22T13:02:27.296Z,1012.64
2018-09-22T13:03:27.324Z,1012.68
2018-09-22T13:05:20.249Z,1012.68
2018-09-22T13:06:20.260Z,1012.67
2018-09-22T13:08:13.171Z,1012.67
2018-09-22T13:09:13.196Z,1012.69
2018-09-22T13:11:06.123Z,1012.63
2018-09-22T13:12:06.146Z,1012.71
2018-09-22T13:13:59.053Z,1012.63
2018-09-22T13:14:59.076Z,1012.66
2018-09-22T13:16:51.990Z,1012.64
2018-09-22T13:17:52.011Z,1012.60
2018-09-22T13:19:44.949Z,1012.69
2018-09-22T13:20:44.948Z,1012.77
2018-09-22T13:22:37.976Z,1012.72
2018-09-22T13:23:37.885Z,1012.79
2018-09-22T13:25:30.806Z,1012.76
2018-09-22T13:26:30.822Z,1012.66
2018-09-22T13:28:23.734Z,1012.53
2018-09-22T13:29:23.758Z,1012.37
2018-09-22T13:31:16.683Z,1012.27
2018-09-22T13:32:16.694Z,1012.22
2018-09-22T13:34:09.673Z,1012.26
2018-09-22T13:35:09.676Z,1012.31
2018-09-22T13:37:02.572Z,1012.32
2018-09-22T13:38:02.563Z,1012.33
2018-09-22T13:39:55.550Z,1012.35
2018-09-22T13:40:55.575Z,1012.33
2018-09-22T13:42:48.503Z,1012.37
2018-09-22T13:43:48.521Z,1012.48
2018-09-22T13:45:41.445Z,1012.48
2018-09-22T13:46:41.467Z,1012.43
2018-09-22T13:48:34.367Z,1012.38
2018-09-22T13:49:35.607Z,1012.39
2018-09-22T13:51:27.317Z,1012.34
2018-09-22T13:52:27.322Z,1012.36
2018-09-22T13:54:20.232Z,1012.39
2018-09-22T13:55:20.258Z,1012.39
2018-09-22T13:57:13.180Z,1012.34
2018-09-22T13:58:13.190Z,1012.35
2018-09-22T14:00:06.106Z,1012.36
2018-09-22T14:01:06.123Z,1012.36
2018-09-22T14:02:59.049Z,1012.41
2018-09-22T14:03:59.057Z,1012.35
2018-09-22T14:05:51.989Z,1012.33
2018-09-22T14:06:51.996Z,1012.37
2018-09-22T14:08:44.931Z,1012.45
2018-09-22T14:09:44.928Z,1012.48
2018-09-22T14:11:37.848Z,1012.51
2018-09-22T14:12:37.863Z,1012.41
2018-09-22T14:14:30.799Z,1012.12
2018-09-22T14:15:30.793Z,1012.07
2018-09-22T14:17:23.720Z,1012.15
2018-09-22T14:18:23.729Z,1012.20
2018-09-22T14:20:16.649Z,1012.33
2018-09-22T14:21:16.696Z,1012.34
2018-09-22T14:23:09.604Z,1012.43
2018-09-22T14:24:09.645Z,1012.50
2018-09-22T14:26:02.548Z,1012.54
2018-09-22T14:27:02.582Z,1012.46
2018-09-22T14:28:55.464Z,1012.34
2018-09-22T14:29:55.478Z,1012.40
2018-09-22T14:31:48.391Z,1012.27
2018-09-22T14:32:48.414Z,1012.26
2018-09-22T14:34:41.536Z,1012.19
2018-09-22T14:35:41.548Z,1012.17
2018-09-22T14:37:34.476Z,1012.22
2018-09-22T14:38:34.496Z,1012.21
2018-09-22T14:40:27.414Z,1012.17
2018-09-22T14:41:27.417Z,1012.20
2018-09-22T14:43:21.402Z,1012.20
2018-09-22T14:44:21.396Z,1012.18
2018-09-22T14:46:14.326Z,1012.19
2018-09-22T14:47:14.329Z,1012.20
2018-09-22T14:49:07.253Z,1012.22
2018-09-22T14:50:07.256Z,1012.17
2018-09-22T14:52:00.180Z,1012.22
2018-09-22T14:53:00.200Z,1012.28
2018-09-22T14:54:53.130Z,1012.31
2018-09-22T14:55:53.157Z,1012.33
2018-09-22T14:57:46.060Z,1012.30
2018-09-22T14:58:46.103Z,1012.24
2018-09-22T15:00:39.004Z,1012.29
2018-09-22T15:01:39.028Z,1012.26
2018-09-22T15:03:31.953Z,1012.19
2018-09-22T15:04:31.951Z,1012.17
2018-09-22T15:06:24.876Z,1012.13
2018-09-22T15:07:24.898Z,1012.16
2018-09-22T15:09:18.007Z,1012.14
2018-09-22T15:10:18.020Z,1012.17
2018-09-22T15:12:10.938Z,1012.11
2018-09-22T15:13:10.958Z,1012.10
2018-09-22T15:15:03.877Z,1012.09
2018-09-22T15:16:03.884Z,1012.11
2018-09-22T15:17:56.800Z,1012.16
2018-09-22T15:18:56.826Z,1012.16
2018-09-22T15:20:49.746Z,1012.15
2018-09-22T15:21:49.765Z,1012.14
2018-09-22T15:23:43.704Z,1012.15
2018-09-22T15:24:43.689Z,1012.10
2018-09-22T15:26:43.748Z,1012.13
2018-09-22T15:27:36.646Z,1012.12
2018-09-22T15:29:29.638Z,1012.12
2018-09-22T15:30:29.668Z,1012.09
2018-09-22T15:32:22.519Z,1012.16
2018-09-22T15:33:22.559Z,1012.16
2018-09-22T15:35:15.460Z,1012.17
2018-09-22T15:36:15.481Z,1012.18
2018-09-22T15:38:08.384Z,1012.15
2018-09-22T15:39:08.403Z,1012.18
2018-09-22T15:41:01.385Z,1012.15
2018-09-22T15:42:01.338Z,1012.34
2018-09-22T15:43:54.251Z,1012.43
2018-09-22T15:44:54.272Z,1012.53
2018-09-22T15:46:47.195Z,1012.64
2018-09-22T15:47:47.215Z,1012.68
2018-09-22T15:49:40.139Z,1012.81
2018-09-22T15:50:40.142Z,1012.93
2018-09-22T15:52:33.054Z,1013.00
2018-09-22T15:53:33.074Z,1013.05
2018-09-22T15:55:25.998Z,1013.06
2018-09-22T15:56:26.011Z,1013.14
2018-09-22T15:58:18.918Z,1013.21
2018-09-22T15:59:18.936Z,1013.17
2018-09-22T16:01:11.855Z,1013.11
2018-09-22T16:02:11.862Z,1013.13
2018-09-22T16:04:04.771Z,1013.11
2018-09-22T16:05:04.787Z,1013.08
2018-09-22T16:06:57.706Z,1013.10
2018-09-22T16:07:57.713Z,1013.12
2018-09-22T16:09:50.619Z,1013.09
2018-09-22T16:10:50.653Z,1013.09
2018-09-22T16:12:43.545Z,1013.10
2018-09-22T16:13:43.565Z,1013.08
2018-09-22T16:15:36.510Z,1013.01
2018-09-22T16:16:36.486Z,1012.95
2018-09-22T16:18:29.416Z,1012.89
2018-09-22T16:19:29.414Z,1012.84
2018-09-22T16:21:22.335Z,1012.94
2018-09-22T16:22:22.336Z,1012.90
2018-09-22T16:24:16.235Z,1012.89
2018-09-22T16:25:16.256Z,1012.92
2018-09-22T16:27:09.206Z,1012.85
2018-09-22T16:28:09.176Z,1012.79
2018-09-22T16:30:02.079Z,1012.84
2018-09-22T16:31:02.100Z,1012.89
2018-09-22T16:32:55.018Z,1012.91
2018-09-22T16:33:55.024Z,1012.89
2018-09-22T16:35:47.927Z,1012.84
2018-09-22T16:36:47.946Z,1012.87
2018-09-22T16:38:40.863Z,1012.83
2018-09-22T16:39:40.873Z,1012.87
2018-09-22T16:41:33.878Z,1012.85
2018-09-22T16:42:33.807Z,1012.79
2018-09-22T16:44:26.713Z,1012.77
2018-09-22T16:45:26.730Z,1012.78
2018-09-22T16:47:19.642Z,1012.76
2018-09-22T16:48:19.652Z,1012.71
2018-09-22T16:50:13.560Z,1012.66
2018-09-22T16:51:13.588Z,1012.69
2018-09-22T16:53:06.487Z,1012.78
2018-09-22T16:54:06.504Z,1012.79
2018-09-22T16:55:59.401Z,1012.80
2018-09-22T16:56:59.425Z,1012.84
2018-09-22T16:58:52.333Z,1012.89
2018-09-22T16:59:52.372Z,1012.90
2018-09-22T17:01:45.263Z,1012.93
2018-09-22T17:02:45.270Z,1012.89
2018-09-22T17:04:38.179Z,1012.93
2018-09-22T17:05:38.188Z,1012.94
2018-09-22T17:07:31.104Z,1012.90
2018-09-22T17:08:31.131Z,1012.83
2018-09-22T17:10:24.054Z,1012.80
2018-09-22T17:11:24.038Z,1012.76
2018-09-22T17:13:16.950Z,1012.70
2018-09-22T17:14:16.958Z,1012.68
2018-09-22T17:16:10.135Z,1012.71
2018-09-22T17:17:10.121Z,1012.71
2018-09-22T17:19:03.032Z,1012.65
2018-09-22T17:20:03.042Z,1012.58
2018-09-22T17:21:55.952Z,1012.56
2018-09-22T17:22:55.965Z,1012.56
2018-09-22T17:24:48.879Z,1012.53
2018-09-22T17:25:48.889Z,1012.51
2018-09-22T17:27:42.791Z,1012.56